createdAt,value
2023-03-28T00:00:19.434Z,125.6
2023-03-28T00:01:17.931Z,137.0
2023-03-28T00:02:18.127Z,110.9
2023-03-28T00:03:17.863Z,81.8
2023-03-28T00:04:18.939Z,125.0
2023-03-28T00:05:17.960Z,83.3
2023-03-28T00:06:17.843Z,50.1
2023-03-28T00:07:17.125Z,47.8
2023-03-28T00:08:17.824Z,25.8
2023-03-28T00:09:17.131Z,35.3
2023-03-28T00:10:17.215Z,23.7
2023-03-28T00:11:17.124Z,15.0
2023-03-28T00:12:17.061Z,13.4
2023-03-28T00:13:17.065Z,18.1
2023-03-28T00:14:17.158Z,12.1
2023-03-28T00:15:17.094Z,11.5
2023-03-28T00:16:17.125Z,11.4
2023-03-28T00:17:17.098Z,24.6
2023-03-28T00:18:17.017Z,24.6
2023-03-28T00:19:17.998Z,25.6
2023-03-28T00:20:17.047Z,36.3
2023-03-28T00:21:17.533Z,28.2
2023-03-28T00:22:17.046Z,23.7
2023-03-28T00:23:17.043Z,30.5
2023-03-28T00:24:17.023Z,25.4
2023-03-28T00:25:17.170Z,17.9
2023-03-28T00:26:16.998Z,19.6
2023-03-28T00:27:17.011Z,17.9
2023-03-28T00:28:16.976Z,16.4
2023-03-28T00:29:17.047Z,13.7
2023-03-28T00:30:17.130Z,13.8
2023-03-28T00:31:17.057Z,14.3
2023-03-28T00:32:17.147Z,14.9
2023-03-28T00:33:17.053Z,11.3
2023-03-28T00:34:17.010Z,10.0
2023-03-28T00:35:17.088Z,10.5
2023-03-28T00:36:16.974Z,10.2
2023-03-28T00:37:17.089Z,12.7
2023-03-28T00:39:17.016Z,11.1
2023-03-28T00:40:17.470Z,16.9
2023-03-28T00:41:17.048Z,26.6
2023-03-28T00:42:17.019Z,32.2
2023-03-28T00:43:17.007Z,26.3
2023-03-28T00:44:17.977Z,21.0
2023-03-28T00:45:16.996Z,17.0
2023-03-28T00:46:17.066Z,12.6
2023-03-28T00:47:17.015Z,10.9
2023-03-28T00:48:17.064Z,9.5
2023-03-28T00:50:17.061Z,10.8
2023-03-28T00:51:18.408Z,20.2
2023-03-28T00:52:17.057Z,16.7
2023-03-28T00:53:17.085Z,35.9
2023-03-28T00:54:17.051Z,16.2
2023-03-28T00:55:16.962Z,28.3
2023-03-28T00:56:16.977Z,37.5
2023-03-28T00:57:17.090Z,28.8
2023-03-28T00:58:17.284Z,56.4
2023-03-28T00:59:17.683Z,53.2
2023-03-28T01:00:17.807Z,180.3
2023-03-28T01:01:17.917Z,188.3
2023-03-28T01:02:17.775Z,258.1
2023-03-28T01:03:18.008Z,187.9
2023-03-28T01:04:17.719Z,97.3
2023-03-28T01:05:18.003Z,76.4
2023-03-28T01:06:17.763Z,77.9
2023-03-28T01:07:17.755Z,67.9
2023-03-28T01:08:17.037Z,39.8
2023-03-28T01:09:17.071Z,33.7
2023-03-28T01:10:17.161Z,28.2
2023-03-28T01:11:17.064Z,26.9
2023-03-28T01:12:16.949Z,21.9
2023-03-28T01:13:16.894Z,19.8
2023-03-28T01:14:17.056Z,20.6
2023-03-28T01:15:16.925Z,21.7
2023-03-28T01:16:16.925Z,19.1
2023-03-28T01:17:16.924Z,17.9
2023-03-28T01:18:17.172Z,14.2
2023-03-28T01:19:16.952Z,13.7
2023-03-28T01:20:16.945Z,14.1
2023-03-28T01:21:16.904Z,13.2
2023-03-28T01:22:17.095Z,13.0
2023-03-28T01:23:16.944Z,12.6
2023-03-28T01:24:16.976Z,12.1
2023-03-28T01:25:16.938Z,12.8
2023-03-28T01:28:16.930Z,21.1
2023-03-28T01:30:17.938Z,13.8
2023-03-28T01:31:16.997Z,11.8
2023-03-28T01:32:16.857Z,11.8
2023-03-28T01:33:16.994Z,15.5
2023-03-28T01:34:16.931Z,12.4
2023-03-28T01:35:39.829Z,12.1
2023-03-28T01:36:33.513Z,10.5
2023-03-28T01:37:16.938Z,10.5
2023-03-28T01:38:16.929Z,12.1
2023-03-28T01:39:16.874Z,14.0
2023-03-28T01:40:16.858Z,21.2
2023-03-28T01:41:16.913Z,22.9
2023-03-28T01:42:16.843Z,15.4
2023-03-28T01:43:16.960Z,13.5
2023-03-28T01:44:16.891Z,13.9
2023-03-28T01:45:16.944Z,21.0
2023-03-28T01:46:16.903Z,12.2
2023-03-28T01:47:16.853Z,12.6
2023-03-28T01:49:17.064Z,12.2
2023-03-28T01:50:16.919Z,12.0
2023-03-28T01:51:17.034Z,13.5
2023-03-28T01:52:17.031Z,12.5
2023-03-28T01:53:17.152Z,13.2
2023-03-28T01:54:16.962Z,12.8
2023-03-28T01:55:16.887Z,12.7
2023-03-28T01:56:16.958Z,43.7
2023-03-28T01:57:17.823Z,37.6
2023-03-28T01:58:17.802Z,154.0
2023-03-28T01:59:16.921Z,83.6
2023-03-28T02:00:16.989Z,50.1
2023-03-28T02:01:16.979Z,35.0
2023-03-28T02:02:16.942Z,24.8
2023-03-28T02:03:16.896Z,26.1
2023-03-28T02:04:20.832Z,19.0
2023-03-28T02:05:16.964Z,16.7
2023-03-28T02:06:16.845Z,14.6
2023-03-28T02:07:16.840Z,13.0
2023-03-28T02:08:16.866Z,11.3
2023-03-28T02:09:16.896Z,12.4
2023-03-28T02:10:16.833Z,11.6
2023-03-28T02:11:16.860Z,9.6
2023-03-28T02:12:16.888Z,9.8
2023-03-28T02:13:16.894Z,10.2
2023-03-28T02:14:16.837Z,8.4
2023-03-28T02:15:16.835Z,9.3
2023-03-28T02:16:16.858Z,9.2
2023-03-28T02:17:16.822Z,10.5
2023-03-28T02:18:16.780Z,11.0
2023-03-28T02:19:16.865Z,10.1
2023-03-28T02:20:16.877Z,10.7
2023-03-28T02:21:16.881Z,8.9
2023-03-28T02:22:16.916Z,9.7
2023-03-28T02:23:16.867Z,9.8
2023-03-28T02:24:16.819Z,8.7
2023-03-28T02:25:16.951Z,9.7
2023-03-28T02:26:16.810Z,10.4
2023-03-28T02:27:16.814Z,9.5
2023-03-28T02:28:16.824Z,11.7
2023-03-28T02:29:16.928Z,12.5
2023-03-28T02:30:16.884Z,10.7
2023-03-28T02:31:16.831Z,11.9
2023-03-28T02:32:17.804Z,12.4
2023-03-28T02:33:16.842Z,11.4
2023-03-28T02:34:16.820Z,12.6
2023-03-28T02:35:16.901Z,12.9
2023-03-28T02:36:16.798Z,12.8
2023-03-28T02:37:16.789Z,11.0
2023-03-28T02:38:16.793Z,13.7
2023-03-28T02:39:16.790Z,12.1
2023-03-28T02:40:16.809Z,12.1
2023-03-28T02:41:16.910Z,15.7
2023-03-28T02:42:16.797Z,13.1
2023-03-28T02:43:16.791Z,15.6
2023-03-28T02:44:16.748Z,13.2
2023-03-28T02:45:16.962Z,15.5
2023-03-28T02:46:16.876Z,12.9
2023-03-28T02:47:16.796Z,9.9
2023-03-28T02:48:16.760Z,12.9
2023-03-28T02:49:16.804Z,12.7
2023-03-28T02:50:16.734Z,11.0
2023-03-28T02:51:22.710Z,9.6
2023-03-28T02:54:16.809Z,9.9
2023-03-28T02:55:16.766Z,8.9
2023-03-28T02:56:16.713Z,11.2
2023-03-28T02:57:17.896Z,18.2
2023-03-28T02:58:16.996Z,16.3
2023-03-28T02:59:16.750Z,20.7
2023-03-28T03:00:17.017Z,15.9
2023-03-28T03:01:16.830Z,18.3
2023-03-28T03:02:21.085Z,30.5
2023-03-28T03:03:16.859Z,27.2
2023-03-28T03:04:16.902Z,26.4
2023-03-28T03:05:16.905Z,18.9
2023-03-28T03:06:16.748Z,17.0
2023-03-28T03:07:16.740Z,15.4
2023-03-28T03:08:17.860Z,16.5
2023-03-28T03:09:16.761Z,14.3
2023-03-28T03:10:16.733Z,12.8
2023-03-28T03:11:16.685Z,9.8
2023-03-28T03:12:16.749Z,9.8
2023-03-28T03:13:16.733Z,8.6
2023-03-28T03:14:16.758Z,8.5
2023-03-28T03:15:17.027Z,9.4
2023-03-28T03:16:16.765Z,9.2
2023-03-28T03:17:16.679Z,8.6
2023-03-28T03:18:16.907Z,9.2
2023-03-28T03:19:16.716Z,8.8
2023-03-28T03:20:16.750Z,11.5
2023-03-28T03:21:16.734Z,9.8
2023-03-28T03:22:20.861Z,8.2
2023-03-28T03:23:16.682Z,8.2
2023-03-28T03:24:16.733Z,8.7
2023-03-28T03:25:16.732Z,11.8
2023-03-28T03:26:16.858Z,9.0
2023-03-28T03:27:16.672Z,10.2
2023-03-28T03:28:16.690Z,9.9
2023-03-28T03:29:16.674Z,23.7
2023-03-28T03:30:16.676Z,17.9
2023-03-28T03:31:16.795Z,31.1
2023-03-28T03:32:16.978Z,24.8
2023-03-28T03:33:17.335Z,16.4
2023-03-28T03:34:16.704Z,15.7
2023-03-28T03:35:18.157Z,17.6
2023-03-28T03:36:16.722Z,17.2
2023-03-28T03:37:17.116Z,24.5
2023-03-28T03:38:16.805Z,17.7
2023-03-28T03:39:16.697Z,27.1
2023-03-28T03:40:16.633Z,19.7
2023-03-28T03:41:17.613Z,19.8
2023-03-28T03:42:16.904Z,22.7
2023-03-28T03:43:16.705Z,19.1
2023-03-28T03:44:16.705Z,19.4
2023-03-28T03:45:16.676Z,19.2
2023-03-28T03:46:16.794Z,15.9
2023-03-28T03:47:16.719Z,20.5
2023-03-28T03:48:17.062Z,13.3
2023-03-28T03:49:16.671Z,20.5
2023-03-28T03:50:16.853Z,17.9
2023-03-28T03:51:16.844Z,15.9
2023-03-28T03:52:16.825Z,18.8
2023-03-28T03:53:16.832Z,21.6
2023-03-28T03:54:16.717Z,27.2
2023-03-28T03:55:16.717Z,21.8
2023-03-28T03:56:16.647Z,26.6
2023-03-28T03:57:16.724Z,22.6
2023-03-28T03:58:20.363Z,15.1
2023-03-28T03:59:16.867Z,9.7
2023-03-28T04:00:16.622Z,8.7
2023-03-28T04:01:16.641Z,8.1
2023-03-28T04:02:16.707Z,7.7
2023-03-28T04:03:24.844Z,8.0
2023-03-28T04:04:17.751Z,6.7
2023-03-28T04:05:16.657Z,7.6
2023-03-28T04:06:16.801Z,7.2
2023-03-28T04:07:16.603Z,7.9
2023-03-28T04:08:16.629Z,7.0
2023-03-28T04:09:16.564Z,7.1
2023-03-28T04:10:16.716Z,6.8
2023-03-28T04:11:16.604Z,7.6
2023-03-28T04:12:19.094Z,7.0
2023-03-28T04:13:16.623Z,6.3
2023-03-28T04:14:16.622Z,6.7
2023-03-28T04:15:16.653Z,6.8
2023-03-28T04:16:16.726Z,6.9
2023-03-28T04:17:16.577Z,7.2
2023-03-28T04:18:16.620Z,7.6
2023-03-28T04:19:19.104Z,7.3
2023-03-28T04:20:16.634Z,8.5
2023-03-28T04:21:16.799Z,8.4
2023-03-28T04:22:16.588Z,8.7
2023-03-28T04:23:16.571Z,8.2
2023-03-28T04:24:16.651Z,7.9
2023-03-28T04:25:16.548Z,7.2
2023-03-28T04:26:16.524Z,7.2
2023-03-28T04:27:16.571Z,6.8
2023-03-28T04:28:16.615Z,10.1
2023-03-28T04:29:18.122Z,12.8
2023-03-28T04:30:16.537Z,16.0
2023-03-28T04:31:16.586Z,13.8
2023-03-28T04:32:16.740Z,14.2
2023-03-28T04:33:16.557Z,11.6
2023-03-28T04:34:16.576Z,9.4
2023-03-28T04:35:16.743Z,9.0
2023-03-28T04:36:16.630Z,8.4
2023-03-28T04:37:16.533Z,8.3
2023-03-28T04:38:20.604Z,6.8
2023-03-28T04:39:16.586Z,6.3
2023-03-28T04:40:16.577Z,7.1
2023-03-28T04:41:16.551Z,6.5
2023-03-28T04:42:16.509Z,9.3
2023-03-28T04:43:16.629Z,8.7
2023-03-28T04:44:16.551Z,8.1
2023-03-28T04:45:17.909Z,6.9
2023-03-28T04:46:16.786Z,7.7
2023-03-28T04:47:16.521Z,6.5
2023-03-28T04:48:16.540Z,6.2
2023-03-28T04:49:16.536Z,6.8
2023-03-28T04:50:16.606Z,7.1
2023-03-28T04:51:16.631Z,6.7
2023-03-28T04:52:16.545Z,5.8
2023-03-28T04:53:16.564Z,6.3
2023-03-28T04:54:16.773Z,6.3
2023-03-28T04:55:16.553Z,6.4
2023-03-28T04:56:16.504Z,7.4
2023-03-28T04:57:16.581Z,6.9
2023-03-28T04:58:16.830Z,7.1
2023-03-28T04:59:16.614Z,8.9
2023-03-28T05:00:17.226Z,11.9
2023-03-28T05:01:19.170Z,10.6
2023-03-28T05:02:16.528Z,10.5
2023-03-28T05:03:16.594Z,11.7
2023-03-28T05:04:16.568Z,10.9
2023-03-28T05:05:16.596Z,8.4
2023-03-28T05:06:16.637Z,13.8
2023-03-28T05:07:16.510Z,9.7
2023-03-28T05:08:16.582Z,10.3
2023-03-28T05:09:16.613Z,13.4
2023-03-28T05:10:16.563Z,14.4
2023-03-28T05:11:16.654Z,15.4
2023-03-28T05:12:16.666Z,13.4
2023-03-28T05:13:16.567Z,13.6
2023-03-28T05:14:16.819Z,13.1
2023-03-28T05:15:22.692Z,11.0
2023-03-28T05:16:16.639Z,11.6
2023-03-28T05:17:16.468Z,10.0
2023-03-28T05:18:16.463Z,10.2
2023-03-28T05:19:16.496Z,9.9
2023-03-28T05:20:16.528Z,11.1
2023-03-28T05:21:16.492Z,11.3
2023-03-28T05:22:16.455Z,12.1
2023-03-28T05:23:17.510Z,8.4
2023-03-28T05:24:16.541Z,8.2
2023-03-28T05:25:16.577Z,6.9
2023-03-28T05:26:16.652Z,6.6
2023-03-28T05:27:16.438Z,6.9
2023-03-28T05:28:16.447Z,7.5
2023-03-28T05:29:16.424Z,6.3
2023-03-28T05:30:16.462Z,7.4
2023-03-28T05:31:16.511Z,9.0
2023-03-28T05:32:16.463Z,10.4
2023-03-28T05:33:16.475Z,12.4
2023-03-28T05:34:16.447Z,9.4
2023-03-28T05:35:16.424Z,15.8
2023-03-28T05:36:16.459Z,12.5
2023-03-28T05:37:16.700Z,13.6
2023-03-28T05:38:16.456Z,10.0
2023-03-28T05:39:16.428Z,9.8
2023-03-28T05:40:16.418Z,10.3
2023-03-28T05:41:16.491Z,11.4
2023-03-28T05:42:20.566Z,11.5
2023-03-28T05:43:16.457Z,12.3
2023-03-28T05:44:18.228Z,13.3
2023-03-28T05:45:16.469Z,16.9
2023-03-28T05:46:16.505Z,17.8
2023-03-28T05:47:16.452Z,15.1
2023-03-28T05:48:16.638Z,14.9
2023-03-28T05:49:16.466Z,14.5
2023-03-28T05:50:17.642Z,13.0
2023-03-28T05:51:16.382Z,11.1
2023-03-28T05:52:16.382Z,15.2
2023-03-28T05:53:16.462Z,13.5
2023-03-28T05:54:16.416Z,11.1
2023-03-28T05:55:16.414Z,11.3
2023-03-28T05:56:16.391Z,10.7
2023-03-28T05:57:16.485Z,9.9
2023-03-28T05:58:16.371Z,11.3
2023-03-28T05:59:16.574Z,10.8
2023-03-28T06:00:16.433Z,9.7
2023-03-28T06:01:16.366Z,16.0
2023-03-28T06:02:16.383Z,14.1
2023-03-28T06:03:17.511Z,17.9
2023-03-28T06:04:16.541Z,19.6
2023-03-28T06:05:16.476Z,16.8
2023-03-28T06:06:16.383Z,26.4
2023-03-28T06:07:16.394Z,22.9
2023-03-28T06:08:16.419Z,15.9
2023-03-28T06:09:16.409Z,24.5
2023-03-28T06:10:16.476Z,19.5
2023-03-28T06:11:16.391Z,16.9
2023-03-28T06:12:16.364Z,26.9
2023-03-28T06:13:16.476Z,18.2
2023-03-28T06:14:21.392Z,30.1
2023-03-28T06:15:16.435Z,24.4
2023-03-28T06:16:16.475Z,20.9
2023-03-28T06:17:17.827Z,19.3
2023-03-28T06:18:16.426Z,26.2
2023-03-28T06:19:18.152Z,24.3
2023-03-28T06:20:16.542Z,19.0
2023-03-28T06:21:16.467Z,20.8
2023-03-28T06:22:16.398Z,17.4
2023-03-28T06:23:16.348Z,13.5
2023-03-28T06:24:16.425Z,16.8
2023-03-28T06:25:16.410Z,12.6
2023-03-28T06:26:16.385Z,10.9
2023-03-28T06:27:16.386Z,11.8
2023-03-28T06:28:16.416Z,12.8
2023-03-28T06:29:16.335Z,9.7
2023-03-28T06:30:16.456Z,8.5
2023-03-28T06:31:16.336Z,6.7
2023-03-28T06:32:16.600Z,6.1
2023-03-28T06:33:16.386Z,6.4
2023-03-28T06:34:16.370Z,6.7
2023-03-28T06:35:16.405Z,8.4
2023-03-28T06:36:16.375Z,14.5
2023-03-28T06:37:16.363Z,28.7
2023-03-28T06:38:16.382Z,18.4
2023-03-28T06:39:16.375Z,13.0
2023-03-28T06:40:16.344Z,10.6
2023-03-28T06:41:16.489Z,8.5
2023-03-28T06:42:16.385Z,5.7
2023-03-28T06:43:16.316Z,5.4
2023-03-28T06:44:16.441Z,5.0
2023-03-28T06:45:16.404Z,5.6
2023-03-28T06:46:16.475Z,4.6
2023-03-28T06:47:16.265Z,5.2
2023-03-28T06:48:16.305Z,8.6
2023-03-28T06:49:16.372Z,12.7
2023-03-28T06:50:16.325Z,11.3
2023-03-28T06:52:16.315Z,10.6
2023-03-28T06:53:16.416Z,6.0
2023-03-28T06:54:16.505Z,4.6
2023-03-28T06:55:16.355Z,9.1
2023-03-28T06:56:16.379Z,6.5
2023-03-28T06:57:16.400Z,4.5
2023-03-28T06:58:16.389Z,4.6
2023-03-28T06:59:16.340Z,4.3
2023-03-28T07:00:16.342Z,4.3
2023-03-28T07:01:16.308Z,4.1
2023-03-28T07:02:16.441Z,3.5
2023-03-28T07:03:16.422Z,4.1
2023-03-28T07:04:16.308Z,4.6
2023-03-28T07:05:16.589Z,3.9
2023-03-28T07:06:16.237Z,4.0
2023-03-28T07:07:16.306Z,4.4
2023-03-28T07:08:16.347Z,4.4
2023-03-28T07:09:16.263Z,4.0
2023-03-28T07:10:16.352Z,3.1
2023-03-28T07:11:16.243Z,2.7
2023-03-28T07:12:16.228Z,3.4
2023-03-28T07:13:16.330Z,4.2
2023-03-28T07:14:17.518Z,4.4
2023-03-28T07:15:18.938Z,5.2
2023-03-28T07:16:16.416Z,3.4
2023-03-28T07:17:16.274Z,3.3
2023-03-28T07:18:16.292Z,3.3
2023-03-28T07:19:16.240Z,2.6
2023-03-28T07:20:16.398Z,3.0
2023-03-28T07:21:16.251Z,2.3
2023-03-28T07:22:16.219Z,1.9
2023-03-28T07:23:16.285Z,1.9
2023-03-28T07:24:16.241Z,2.2
2023-03-28T07:25:16.268Z,2.4
2023-03-28T07:26:16.266Z,2.1
2023-03-28T07:27:17.250Z,3.5
2023-03-28T07:28:16.269Z,2.5
2023-03-28T07:29:16.225Z,2.0
2023-03-28T07:30:16.265Z,1.6
2023-03-28T07:31:16.281Z,1.9
2023-03-28T07:32:16.252Z,2.6
2023-03-28T07:33:39.043Z,1.9
2023-03-28T07:34:16.240Z,1.9
2023-03-28T07:35:16.271Z,1.8
2023-03-28T07:36:16.251Z,2.7
2023-03-28T07:37:16.220Z,2.0
2023-03-28T07:38:16.372Z,1.9
2023-03-28T07:39:16.200Z,2.0
2023-03-28T07:40:16.200Z,2.2
2023-03-28T07:41:16.212Z,1.8
2023-03-28T07:42:16.176Z,2.7
2023-03-28T07:43:16.260Z,2.4
2023-03-28T07:44:17.275Z,1.8
2023-03-28T07:45:16.208Z,1.7
2023-03-28T07:46:17.586Z,2.0
2023-03-28T07:47:16.240Z,2.1
2023-03-28T07:48:16.307Z,2.1
2023-03-28T07:49:16.572Z,1.9
2023-03-28T07:50:16.217Z,2.0
2023-03-28T07:51:16.266Z,1.9
2023-03-28T07:52:16.182Z,2.0
2023-03-28T07:53:16.211Z,1.9
2023-03-28T07:54:16.165Z,1.9
2023-03-28T07:55:16.232Z,2.1
2023-03-28T07:56:16.207Z,1.8
2023-03-28T07:57:17.102Z,2.6
2023-03-28T07:58:16.194Z,1.8
2023-03-28T07:59:16.200Z,2.2
2023-03-28T08:00:16.307Z,1.7
2023-03-28T08:01:16.145Z,1.6
2023-03-28T08:02:16.170Z,1.8
2023-03-28T08:03:16.316Z,1.7
2023-03-28T08:04:16.215Z,1.6
2023-03-28T08:05:16.272Z,2.1
2023-03-28T08:06:30.958Z,1.5
2023-03-28T08:07:16.271Z,1.5
2023-03-28T08:08:16.195Z,1.8
2023-03-28T08:09:16.168Z,1.4
2023-03-28T08:10:16.215Z,1.6
2023-03-28T08:11:16.596Z,1.6
2023-03-28T08:12:16.145Z,1.7
2023-03-28T08:13:16.155Z,2.1
2023-03-28T08:14:16.261Z,1.7
2023-03-28T08:15:30.345Z,1.6
2023-03-28T08:16:16.262Z,1.7
2023-03-28T08:17:16.226Z,1.4
2023-03-28T08:18:16.219Z,1.1
2023-03-28T08:19:16.205Z,1.1
2023-03-28T08:20:16.199Z,1.5
2023-03-28T08:21:16.148Z,1.3
2023-03-28T08:22:17.104Z,1.9
2023-03-28T08:23:16.363Z,2.1
2023-03-28T08:24:25.433Z,1.8
2023-03-28T08:25:16.357Z,2.7
2023-03-28T08:26:16.136Z,2.4
2023-03-28T08:27:16.228Z,4.0
2023-03-28T08:28:16.156Z,2.4
2023-03-28T08:29:16.344Z,2.1
2023-03-28T08:30:16.121Z,2.3
2023-03-28T08:31:16.277Z,2.6
2023-03-28T08:32:16.193Z,2.3
2023-03-28T08:33:16.166Z,3.1
2023-03-28T08:34:26.820Z,2.3
2023-03-28T08:35:16.249Z,2.7
2023-03-28T08:36:16.282Z,2.7
2023-03-28T08:37:16.124Z,2.2
2023-03-28T08:38:16.572Z,2.9
2023-03-28T08:39:16.154Z,3.3
2023-03-28T08:40:16.181Z,4.0
2023-03-28T08:41:16.203Z,4.0
2023-03-28T08:42:16.081Z,4.2
2023-03-28T08:43:16.249Z,3.7
2023-03-28T08:44:16.141Z,4.7
2023-03-28T08:45:16.192Z,8.5
2023-03-28T08:46:16.159Z,6.0
2023-03-28T08:47:16.316Z,4.1
2023-03-28T08:48:16.255Z,3.0
2023-03-28T08:49:16.135Z,3.1
2023-03-28T08:50:16.162Z,2.7
2023-03-28T08:51:16.151Z,2.7
2023-03-28T08:52:16.258Z,2.4
2023-03-28T08:53:16.119Z,2.3
2023-03-28T08:54:16.232Z,2.4
2023-03-28T08:55:16.332Z,2.2
2023-03-28T08:56:16.189Z,2.0
2023-03-28T08:57:16.115Z,2.3
2023-03-28T08:58:16.103Z,2.9
2023-03-28T08:59:16.132Z,2.2
2023-03-28T09:00:16.120Z,2.2
2023-03-28T09:01:16.092Z,1.9
2023-03-28T09:02:16.077Z,1.7
2023-03-28T09:03:16.230Z,1.8
2023-03-28T09:04:16.269Z,1.8
2023-03-28T09:05:23.349Z,1.9
2023-03-28T09:06:16.057Z,1.8
2023-03-28T09:07:16.108Z,1.6
2023-03-28T09:08:17.651Z,2.1
2023-03-28T09:09:16.097Z,1.9
2023-03-28T09:10:32.360Z,2.2
2023-03-28T09:11:16.132Z,2.1
2023-03-28T09:12:16.053Z,1.7
2023-03-28T09:13:16.193Z,1.7
2023-03-28T09:14:16.101Z,1.8
2023-03-28T09:15:16.024Z,1.7
2023-03-28T09:16:16.324Z,2.6
2023-03-28T09:17:16.053Z,2.6
2023-03-28T09:18:16.189Z,2.1
2023-03-28T09:19:16.065Z,4.7
2023-03-28T09:20:16.117Z,5.6
2023-03-28T09:21:16.087Z,5.3
2023-03-28T09:22:16.401Z,5.6
2023-03-28T09:23:16.137Z,3.6
2023-03-28T09:24:16.043Z,2.0
2023-03-28T09:26:16.000Z,2.0
2023-03-28T09:27:16.117Z,1.8
2023-03-28T09:28:36.815Z,2.5
2023-03-28T09:29:15.982Z,2.8
2023-03-28T09:30:16.005Z,2.1
2023-03-28T09:31:16.076Z,1.5
2023-03-28T09:33:16.034Z,1.5
2023-03-28T09:34:16.032Z,1.9
2023-03-28T09:35:16.015Z,1.7
2023-03-28T09:36:16.106Z,1.7
2023-03-28T09:37:43.732Z,1.9
2023-03-28T09:38:16.055Z,1.6
2023-03-28T09:39:16.006Z,1.4
2023-03-28T09:40:16.030Z,1.3
2023-03-28T09:41:16.133Z,1.5
2023-03-28T09:42:16.179Z,1.7
2023-03-28T09:43:16.074Z,1.3
2023-03-28T09:44:16.002Z,1.8
2023-03-28T09:48:17.685Z,1.9
2023-03-28T09:49:16.344Z,2.4
2023-03-28T09:50:15.983Z,3.4
2023-03-28T09:51:16.000Z,3.6
2023-03-28T09:52:15.956Z,3.7
2023-03-28T09:53:16.216Z,2.9
2023-03-28T09:54:16.014Z,3.0
2023-03-28T09:55:15.993Z,2.7
2023-03-28T09:56:15.944Z,2.0
2023-03-28T09:57:16.253Z,1.8
2023-03-28T09:58:16.074Z,2.2
2023-03-28T09:59:16.161Z,2.2
2023-03-28T10:00:16.204Z,1.8
2023-03-28T10:01:15.991Z,2.0
2023-03-28T10:02:15.932Z,1.8
2023-03-28T10:03:16.018Z,2.1
2023-03-28T10:04:16.026Z,1.9
2023-03-28T10:05:16.011Z,2.0
2023-03-28T10:06:15.987Z,1.5
2023-03-28T10:07:15.970Z,1.7
2023-03-28T10:08:16.169Z,1.9
2023-03-28T10:09:16.023Z,1.9
2023-03-28T10:10:15.933Z,2.9
2023-03-28T10:11:16.206Z,2.4
2023-03-28T10:12:15.961Z,3.6
2023-03-28T10:13:22.699Z,2.3
2023-03-28T10:14:15.999Z,1.8
2023-03-28T10:16:16.360Z,1.7
2023-03-28T10:18:46.125Z,1.7
2023-03-28T10:19:45.848Z,1.2
2023-03-28T10:21:32.920Z,1.7
2023-03-28T10:22:32.503Z,1.3
2023-03-28T10:23:32.322Z,1.9
2023-03-28T10:24:32.132Z,1.7
2023-03-28T10:25:32.276Z,3.4
2023-03-28T10:26:32.272Z,1.7
2023-03-28T10:27:32.320Z,1.4
2023-03-28T10:28:32.313Z,1.7
2023-03-28T10:29:32.190Z,1.5
2023-03-28T10:30:32.322Z,4.1
2023-03-28T10:31:32.183Z,3.0
2023-03-28T10:32:32.144Z,1.7
2023-03-28T10:33:32.114Z,1.9
2023-03-28T10:34:32.195Z,1.4
2023-03-28T10:35:32.175Z,1.3
2023-03-28T10:36:32.397Z,1.3
2023-03-28T10:37:32.474Z,1.3
2023-03-28T10:38:32.443Z,1.4
2023-03-28T10:39:32.304Z,1.3
2023-03-28T10:40:32.225Z,1.3
2023-03-28T10:41:32.146Z,1.5
2023-03-28T10:42:32.227Z,1.4
2023-03-28T10:43:32.396Z,2.0
2023-03-28T10:44:32.121Z,1.6
2023-03-28T10:45:32.104Z,1.6
2023-03-28T10:46:32.183Z,1.7
2023-03-28T10:47:32.113Z,1.6
2023-03-28T10:48:32.108Z,1.6
2023-03-28T10:49:32.087Z,1.5
2023-03-28T10:50:33.526Z,1.4
2023-03-28T10:51:32.066Z,1.9
2023-03-28T10:52:32.175Z,2.1
2023-03-28T10:53:32.167Z,1.9
2023-03-28T10:54:32.313Z,3.0
2023-03-28T10:55:32.041Z,2.3
2023-03-28T10:56:32.087Z,2.5
2023-03-28T10:57:32.094Z,1.8
2023-03-28T10:58:32.155Z,1.8
2023-03-28T10:59:32.057Z,2.9
2023-03-28T11:00:32.173Z,3.0
2023-03-28T11:01:33.263Z,3.7
2023-03-28T11:02:32.093Z,1.9
2023-03-28T11:03:32.228Z,1.9
2023-03-28T11:04:32.068Z,3.5
2023-03-28T11:05:32.413Z,6.8
2023-03-28T11:06:32.042Z,3.8
2023-03-28T11:07:32.078Z,2.9
2023-03-28T11:08:32.054Z,2.4
2023-03-28T11:09:32.131Z,1.9
2023-03-28T11:10:32.103Z,1.5
2023-03-28T11:11:32.029Z,4.0
2023-03-28T11:12:35.957Z,3.4
2023-03-28T11:13:32.048Z,3.0
2023-03-28T11:14:32.045Z,2.4
2023-03-28T11:15:32.043Z,2.3
2023-03-28T11:16:32.287Z,2.3
2023-03-28T11:17:32.105Z,2.2
2023-03-28T11:18:32.021Z,2.3
2023-03-28T11:19:32.098Z,1.8
2023-03-28T11:20:32.080Z,1.9
2023-03-28T11:21:32.329Z,1.6
2023-03-28T11:22:32.038Z,1.3
2023-03-28T11:23:32.003Z,1.6
2023-03-28T11:24:32.080Z,1.3
2023-03-28T11:25:32.116Z,1.2
2023-03-28T11:26:32.044Z,2.9
2023-03-28T11:27:32.200Z,1.7
2023-03-28T11:28:32.003Z,6.7
2023-03-28T11:29:42.608Z,6.6
2023-03-28T11:30:32.011Z,5.3
2023-03-28T11:31:32.190Z,4.0
2023-03-28T11:32:32.066Z,2.4
2023-03-28T11:33:32.065Z,2.7
2023-03-28T11:34:32.030Z,2.4
2023-03-28T11:35:32.023Z,1.9
2023-03-28T11:36:32.134Z,2.4
2023-03-28T11:37:32.050Z,2.5
2023-03-28T11:38:32.277Z,2.2
2023-03-28T11:39:31.973Z,2.1
2023-03-28T11:40:31.978Z,1.7
2023-03-28T11:41:31.975Z,1.6
2023-03-28T11:42:32.116Z,1.9
2023-03-28T11:43:32.068Z,1.2
2023-03-28T11:44:32.002Z,2.8
2023-03-28T11:45:47.677Z,6.4
2023-03-28T11:46:32.075Z,6.5
2023-03-28T11:47:32.103Z,6.0
2023-03-28T11:48:32.073Z,9.4
2023-03-28T11:49:32.101Z,9.3
2023-03-28T11:50:32.047Z,16.0
2023-03-28T11:51:32.021Z,12.9
2023-03-28T11:52:33.274Z,8.2
2023-03-28T11:53:32.031Z,7.4
2023-03-28T11:54:32.003Z,7.4
2023-03-28T11:55:32.005Z,6.5
2023-03-28T11:56:32.054Z,5.0
2023-03-28T11:57:32.063Z,8.3
2023-03-28T11:58:32.010Z,9.1
2023-03-28T11:59:32.019Z,6.8
2023-03-28T12:00:34.235Z,7.1
2023-03-28T12:01:32.786Z,6.1
2023-03-28T12:02:32.276Z,5.9
2023-03-28T12:03:32.166Z,6.6
2023-03-28T12:04:32.033Z,3.7
2023-03-28T12:05:32.038Z,2.7
2023-03-28T12:06:32.676Z,2.3
2023-03-28T12:07:31.954Z,2.2
2023-03-28T12:08:32.133Z,1.9
2023-03-28T12:09:32.222Z,2.6
2023-03-28T12:10:31.978Z,2.0
2023-03-28T12:11:32.000Z,1.9
2023-03-28T12:12:31.967Z,13.7
2023-03-28T12:13:32.521Z,17.8
2023-03-28T12:14:32.028Z,12.1
2023-03-28T12:15:31.960Z,8.2
2023-03-28T12:16:32.008Z,4.8
2023-03-28T12:17:32.079Z,2.5
2023-03-28T12:18:31.906Z,2.5
2023-03-28T12:19:31.940Z,2.7
2023-03-28T12:20:32.004Z,11.5
2023-03-28T12:21:31.975Z,6.7
2023-03-28T12:22:31.904Z,5.4
2023-03-28T12:23:31.923Z,6.7
2023-03-28T12:24:31.973Z,5.9
2023-03-28T12:25:32.374Z,3.6
2023-03-28T12:26:32.149Z,2.2
2023-03-28T12:27:32.052Z,4.1
2023-03-28T12:28:32.067Z,6.4
2023-03-28T12:29:31.989Z,6.1
2023-03-28T12:30:32.159Z,5.4
2023-03-28T12:31:32.349Z,4.4
2023-03-28T12:32:32.661Z,4.5
2023-03-28T12:33:31.844Z,4.7
2023-03-28T12:34:31.944Z,6.0
2023-03-28T12:35:32.016Z,6.0
2023-03-28T12:36:31.963Z,4.2
2023-03-28T12:37:32.223Z,5.8
2023-03-28T12:38:31.937Z,7.8
2023-03-28T12:39:32.190Z,6.9
2023-03-28T12:40:31.896Z,6.4
2023-03-28T12:41:31.906Z,3.9
2023-03-28T12:42:32.067Z,4.3
2023-03-28T12:43:32.151Z,4.1
2023-03-28T12:44:32.434Z,3.4
2023-03-28T12:45:32.022Z,4.9
2023-03-28T12:46:32.058Z,5.0
2023-03-28T12:47:32.721Z,3.7
2023-03-28T12:48:32.041Z,3.0
2023-03-28T12:49:32.274Z,2.8
2023-03-28T12:50:31.921Z,2.0
2023-03-28T12:51:32.247Z,2.7
2023-03-28T12:52:32.127Z,5.6
2023-03-28T12:53:32.170Z,6.0
2023-03-28T12:54:32.460Z,5.0
2023-03-28T12:55:32.450Z,5.8
2023-03-28T12:56:32.217Z,5.1
2023-03-28T12:57:36.579Z,2.5
2023-03-28T12:58:32.068Z,3.3
2023-03-28T12:59:31.992Z,4.0
2023-03-28T13:00:33.867Z,2.7
2023-03-28T13:01:32.071Z,2.2
2023-03-28T13:02:31.912Z,5.5
2023-03-28T13:03:32.002Z,3.7
2023-03-28T13:04:32.477Z,3.2
2023-03-28T13:05:32.307Z,2.7
2023-03-28T13:06:31.844Z,2.1
2023-03-28T13:07:32.679Z,2.5
2023-03-28T13:08:32.032Z,2.3
2023-03-28T13:09:31.829Z,2.0
2023-03-28T13:10:32.202Z,1.6
2023-03-28T13:11:32.034Z,1.8
2023-03-28T13:12:32.840Z,1.4
2023-03-28T13:13:32.380Z,1.3
2023-03-28T13:14:32.395Z,1.7
2023-03-28T13:15:32.158Z,1.2
2023-03-28T13:16:32.243Z,1.3
2023-03-28T13:17:32.835Z,1.4
2023-03-28T13:18:32.110Z,1.1
2023-03-28T13:19:33.894Z,1.2
2023-03-28T13:20:32.322Z,1.1
2023-03-28T13:21:31.847Z,1.2
2023-03-28T13:22:31.878Z,1.8
2023-03-28T13:23:31.943Z,1.2
2023-03-28T13:24:31.824Z,2.0
2023-03-28T13:25:32.529Z,2.4
2023-03-28T13:26:31.950Z,2.4
2023-03-28T13:27:32.227Z,2.1
2023-03-28T13:28:33.206Z,2.5
2023-03-28T13:29:33.416Z,2.2
2023-03-28T13:30:34.636Z,2.2
2023-03-28T13:31:31.989Z,2.0
2023-03-28T13:32:32.011Z,2.7
2023-03-28T13:33:31.867Z,2.6
2023-03-28T13:34:31.759Z,2.9
2023-03-28T13:35:32.159Z,6.6
2023-03-28T13:36:31.805Z,12.6
2023-03-28T13:37:32.036Z,8.3
2023-03-28T13:38:31.983Z,14.7
2023-03-28T13:39:31.795Z,5.6
2023-03-28T13:40:31.921Z,5.9
2023-03-28T13:41:31.775Z,3.6
2023-03-28T13:42:31.790Z,2.6
2023-03-28T13:43:31.774Z,7.1
2023-03-28T13:44:31.758Z,4.2
2023-03-28T13:45:31.925Z,7.1
2023-03-28T13:46:31.834Z,5.1
2023-03-28T13:47:31.917Z,5.1
2023-03-28T13:48:32.097Z,4.4
2023-03-28T13:49:32.123Z,3.5
2023-03-28T13:50:32.176Z,3.4
2023-03-28T13:51:31.762Z,4.3
2023-03-28T13:52:32.023Z,2.5